Time;durP1;ratioP1;P1;durP2;ratioP2;P2;SDS_P1;SDS_P2;PMS_P1;PMS_P2;Temp;Humidity;BMP_temperature;BMP_pressure;BME280_temperature;BME280_humidity;BME280_pressure;Samples;Min_cycle;Max_cycle;Signal;HPM_P1;HPM_P2
2022/08/25 00:01:21;;;;;;;9.95;6.88;;;21.00;99.90;;;;;;6125890;23;20111;-85
2022/08/25 00:03:47;;;;;;;9.27;6.28;;;20.90;99.90;;;;;;6175835;23;20069;-86
2022/08/25 00:06:14;;;;;;;10.63;6.63;;;21.00;99.90;;;;;;6177053;23;20437;-85
2022/08/25 00:08:41;;;;;;;8.05;6.55;;;21.00;99.90;;;;;;6150380;23;20379;-85
2022/08/25 00:11:14;;;;;;;10.35;6.85;;;20.90;99.90;;;;;;6149729;23;20028;-86
2022/08/25 00:13:42;;;;;;;10.73;7.20;;;20.80;99.90;;;;;;6125466;23;20013;-86
2022/08/25 00:16:13;;;;;;;9.27;6.72;;;20.80;99.90;;;;;;6150376;23;20016;-86
2022/08/25 00:18:40;;;;;;;8.73;6.50;;;20.80;99.90;;;;;;6149556;23;20074;-85
2022/08/25 00:21:07;;;;;;;11.15;7.20;;;20.80;99.90;;;;;;6176708;23;20009;-85
2022/08/25 00:23:33;;;;;;;12.77;6.45;;;20.80;99.90;;;;;;6176387;23;20028;-85
2022/08/25 00:26:00;;;;;;;9.57;6.80;;;20.70;99.90;;;;;;6150411;23;20479;-85
2022/08/25 00:28:25;;;;;;;8.77;6.55;;;20.70;99.90;;;;;;6165786;23;20021;-86
2022/08/25 00:30:51;;;;;;;11.30;7.00;;;20.70;99.90;;;;;;6174120;23;20028;-86
2022/08/25 00:33:17;;;;;;;8.65;6.55;;;20.60;99.90;;;;;;6174282;23;20206;-86
2022/08/25 00:35:43;;;;;;;9.38;6.38;;;20.60;99.90;;;;;;6174714;23;20453;-86
2022/08/25 00:38:10;;;;;;;8.73;6.20;;;20.60;99.90;;;;;;6174920;22;20017;-86
2022/08/25 00:40:38;;;;;;;12.48;7.00;;;20.60;99.90;;;;;;6174373;23;20449;-86
2022/08/25 00:43:05;;;;;;;10.23;5.88;;;20.60;99.90;;;;;;6174994;22;20476;-86
2022/08/25 00:45:32;;;;;;;10.73;7.18;;;20.50;99.90;;;;;;6150131;22;20017;-86
2022/08/25 00:47:59;;;;;;;8.45;5.97;;;20.50;99.90;;;;;;6150125;22;20096;-85
2022/08/25 00:50:25;;;;;;;9.15;5.72;;;20.40;99.90;;;;;;6174703;22;20024;-85
2022/08/25 00:52:54;;;;;;;9.85;6.28;;;20.40;99.90;;;;;;6149526;22;20017;-86
2022/08/25 00:55:26;;;;;;;9.63;5.93;;;20.40;99.90;;;;;;6175293;22;20084;-86
2022/08/25 00:57:57;;;;;;;8.98;5.95;;;20.40;99.90;;;;;;6175894;22;20100;-86
2022/08/25 01:00:27;;;;;;;9.35;5.82;;;20.40;99.90;;;;;;6174124;22;20017;-86
2022/08/25 01:02:55;;;;;;;7.15;5.38;;;20.30;99.90;;;;;;6150078;22;20068;-85
2022/08/25 01:05:21;;;;;;;9.20;5.63;;;20.30;99.90;;;;;;6176658;23;20040;-85
2022/08/25 01:07:48;;;;;;;7.93;5.65;;;20.30;99.90;;;;;;6173829;22;20039;-85
2022/08/25 01:10:16;;;;;;;10.93;6.05;;;20.30;99.90;;;;;;6175007;23;20044;-85
2022/08/25 01:12:41;;;;;;;7.65;5.38;;;20.30;99.90;;;;;;6173788;22;20480;-85
2022/08/25 01:15:11;;;;;;;10.30;5.97;;;20.30;99.90;;;;;;6174023;23;20014;-86
2022/08/25 01:17:48;;;;;;;8.82;6.18;;;20.30;99.90;;;;;;6174318;22;20017;-85
2022/08/25 01:20:18;;;;;;;9.15;5.63;;;20.30;99.90;;;;;;6174593;22;20028;-85
2022/08/25 01:22:44;;;;;;;10.93;5.90;;;20.20;99.90;;;;;;6174132;22;20449;-85
2022/08/25 01:25:34;;;;;;;9.35;6.13;;;20.20;99.90;;;;;;6176662;22;20092;-86
2022/08/25 01:28:00;;;;;;;12.80;6.38;;;20.20;99.90;;;;;;6176356;23;20013;-85
2022/08/25 01:30:26;;;;;;;9.02;5.85;;;20.30;99.90;;;;;;6149254;23;20029;-86
2022/08/25 01:32:52;;;;;;;9.18;5.47;;;20.20;99.90;;;;;;6175711;23;20045;-85
2022/08/25 01:35:18;;;;;;;7.57;6.20;;;20.10;99.90;;;;;;6176779;23;20492;-85
2022/08/25 01:37:43;;;;;;;8.30;5.80;;;20.00;99.90;;;;;;6149474;23;20353;-85
2022/08/25 01:40:10;;;;;;;7.78;5.70;;;20.10;99.90;;;;;;6176673;23;20795;-85
2022/08/25 01:43:09;;;;;;;11.40;6.25;;;20.00;99.90;;;;;;6149683;23;20387;-85
2022/08/25 01:45:37;;;;;;;10.82;5.45;;;20.00;99.90;;;;;;6149008;23;20437;-85
2022/08/25 01:48:03;;;;;;;10.15;5.80;;;19.90;99.90;;;;;;6125235;23;20048;-85
2022/08/25 01:50:30;;;;;;;8.60;5.70;;;19.90;99.90;;;;;;6125270;23;20395;-86
2022/08/25 01:53:03;;;;;;;9.57;5.93;;;19.90;99.90;;;;;;6175700;23;20020;-86
2022/08/25 01:55:29;;;;;;;10.27;6.55;;;19.80;99.90;;;;;;6150018;23;20017;-86
2022/08/25 01:57:57;;;;;;;9.15;6.22;;;19.80;99.90;;;;;;6175986;23;20017;-85
2022/08/25 02:00:23;;;;;;;8.55;6.45;;;19.80;99.90;;;;;;6148918;23;20009;-86
2022/08/25 02:02:49;;;;;;;9.38;6.45;;;19.80;99.90;;;;;;6149767;23;20017;-85
2022/08/25 02:05:15;;;;;;;8.13;5.78;;;19.70;99.90;;;;;;6149619;23;20074;-85
2022/08/25 02:07:42;;;;;;;8.13;5.32;;;19.70;99.90;;;;;;6124881;23;20024;-85
2022/08/25 02:10:10;;;;;;;12.45;6.45;;;19.70;99.90;;;;;;6176211;23;20013;-85
2022/08/25 02:12:35;;;;;;;9.50;5.22;;;19.60;99.90;;;;;;6175319;23;20520;-85
2022/08/25 02:15:04;;;;;;;10.57;6.18;;;19.60;99.90;;;;;;6125253;23;20059;-85
2022/08/25 02:17:30;;;;;;;8.25;5.55;;;19.60;99.90;;;;;;6149314;23;20487;-85
2022/08/25 02:19:56;;;;;;;9.45;6.25;;;19.50;99.90;;;;;;6149043;23;20096;-85
2022/08/25 02:22:22;;;;;;;7.78;5.72;;;19.50;99.90;;;;;;6176575;23;20048;-85
2022/08/25 02:24:49;;;;;;;9.32;6.03;;;19.50;99.90;;;;;;6148975;23;20021;-86
2022/08/25 02:27:14;;;;;;;9.35;5.78;;;19.50;99.90;;;;;;6150531;23;20055;-86
2022/08/25 02:29:40;;;;;;;11.60;5.90;;;19.40;99.90;;;;;;6174069;23;20025;-85
2022/08/25 02:32:06;;;;;;;12.65;6.28;;;19.40;99.90;;;;;;6174491;23;20009;-85
2022/08/25 02:34:33;;;;;;;11.60;5.70;;;19.40;99.90;;;;;;6176132;22;20083;-86
2022/08/25 02:36:59;;;;;;;8.55;5.88;;;19.30;99.90;;;;;;6174917;22;20020;-85
2022/08/25 02:39:25;;;;;;;8.98;5.82;;;19.40;99.90;;;;;;6174385;23;20017;-85
2022/08/25 02:41:51;;;;;;;9.43;5.43;;;19.30;99.90;;;;;;6173410;22;20385;-85
2022/08/25 02:44:16;;;;;;;11.40;6.00;;;19.40;99.90;;;;;;6176104;23;20009;-86
2022/08/25 02:46:42;;;;;;;9.13;5.63;;;19.20;99.90;;;;;;6149131;23;20146;-86
2022/08/25 02:49:07;;;;;;;8.85;5.65;;;19.50;99.90;;;;;;6175785;23;20074;-85
2022/08/25 02:51:34;;;;;;;10.00;5.25;;;19.40;99.90;;;;;;6173978;23;20017;-85
2022/08/25 02:54:01;;;;;;;6.75;5.25;;;19.10;99.90;;;;;;6149412;22;20009;-85
2022/08/25 02:56:28;;;;;;;8.95;5.13;;;19.10;99.90;;;;;;6174094;23;20017;-85
2022/08/25 02:58:54;;;;;;;8.40;5.50;;;19.10;99.90;;;;;;6175149;23;20099;-86
2022/08/25 03:01:20;;;;;;;10.25;5.30;;;19.10;99.90;;;;;;6173957;23;20051;-85
2022/08/25 03:03:47;;;;;;;10.38;5.03;;;19.00;99.90;;;;;;6149212;22;20099;-85
2022/08/25 03:06:17;;;;;;;9.25;5.55;;;19.00;99.90;;;;;;6174835;22;20052;-85
2022/08/25 03:08:43;;;;;;;7.57;5.07;;;19.00;99.90;;;;;;6148868;22;20025;-86
2022/08/25 03:11:09;;;;;;;9.90;5.93;;;19.00;99.90;;;;;;6175067;22;20064;-85
2022/08/25 03:13:36;;;;;;;7.82;5.50;;;18.90;99.90;;;;;;6175300;22;20017;-86
2022/08/25 03:16:03;;;;;;;11.85;5.25;;;18.90;99.90;;;;;;6174372;22;20028;-85
2022/08/25 03:18:29;;;;;;;8.93;4.90;;;18.90;99.90;;;;;;6173915;22;20097;-85
2022/08/25 03:20:54;;;;;;;10.27;5.35;;;18.80;99.90;;;;;;6174741;23;20017;-85
2022/08/25 03:23:20;;;;;;;9.35;5.25;;;18.80;99.90;;;;;;6149426;23;20084;-85
2022/08/25 03:28:31;;;;;;;6.88;5.18;;;18.80;99.90;;;;;;6173713;23;20022;-85
2022/08/25 03:30:59;;;;;;;10.98;5.47;;;18.80;99.90;;;;;;6175531;23;20029;-86
2022/08/25 03:33:26;;;;;;;9.02;5.55;;;18.70;99.90;;;;;;6150713;22;20017;-85
2022/08/25 03:35:52;;;;;;;9.75;5.60;;;18.80;99.90;;;;;;6150054;22;20021;-85
2022/08/25 03:38:18;;;;;;;9.50;5.25;;;18.70;99.90;;;;;;6175045;23;20009;-85
2022/08/25 03:40:43;;;;;;;10.93;5.90;;;18.60;99.90;;;;;;6174199;23;20100;-85
2022/08/25 03:43:09;;;;;;;7.63;5.30;;;18.70;99.90;;;;;;6174702;23;20456;-85
2022/08/25 03:45:39;;;;;;;9.07;5.43;;;18.60;99.90;;;;;;6175082;23;20078;-85
2022/08/25 03:48:05;;;;;;;11.82;5.65;;;18.60;99.90;;;;;;6177197;22;20020;-85
2022/08/25 03:50:30;;;;;;;7.72;5.55;;;18.50;99.90;;;;;;6175349;23;20092;-86
2022/08/25 03:52:56;;;;;;;8.52;5.55;;;18.60;99.90;;;;;;6150044;23;20044;-86
2022/08/25 03:55:24;;;;;;;9.15;5.68;;;18.60;99.90;;;;;;6174365;22;20059;-85
2022/08/25 03:57:51;;;;;;;8.70;5.40;;;18.50;99.90;;;;;;6150603;22;20017;-85
2022/08/25 04:00:18;;;;;;;9.43;5.47;;;18.50;99.90;;;;;;6174924;22;20345;-86
2022/08/25 04:02:44;;;;;;;8.80;5.65;;;18.50;99.90;;;;;;6175560;23;20040;-85
2022/08/25 04:05:10;;;;;;;9.43;5.95;;;18.40;99.90;;;;;;6176772;23;20009;-85
2022/08/25 04:07:36;;;;;;;7.88;5.30;;;18.40;99.90;;;;;;6149821;23;20024;-85
2022/08/25 04:10:05;;;;;;;10.77;5.65;;;18.40;99.90;;;;;;6174298;22;20018;-86
2022/08/25 04:12:30;;;;;;;11.15;6.07;;;18.30;99.90;;;;;;6150410;22;20070;-85
2022/08/25 04:14:56;;;;;;;9.00;5.97;;;18.30;99.90;;;;;;6149816;23;20017;-85
2022/08/25 04:17:21;;;;;;;8.63;5.38;;;18.20;99.90;;;;;;6174795;23;20058;-85
2022/08/25 04:19:47;;;;;;;8.68;5.72;;;18.30;99.90;;;;;;6174594;23;20021;-85
2022/08/25 04:22:13;;;;;;;8.93;5.97;;;18.20;99.90;;;;;;6176775;23;20444;-85
2022/08/25 04:24:39;;;;;;;9.98;5.57;;;18.40;99.90;;;;;;6174438;22;20017;-85
2022/08/25 04:27:04;;;;;;;11.95;5.57;;;18.20;99.90;;;;;;6176311;23;20123;-85
2022/08/25 04:29:30;;;;;;;10.25;5.30;;;18.30;99.90;;;;;;6176813;23;20468;-85
2022/08/25 04:31:55;;;;;;;7.43;5.32;;;18.10;99.90;;;;;;6124889;23;20013;-85
2022/08/25 04:34:23;;;;;;;10.05;6.30;;;18.10;99.90;;;;;;6150247;23;20024;-85
2022/08/25 04:36:49;;;;;;;10.68;5.72;;;18.00;99.90;;;;;;6150122;23;20021;-85
2022/08/25 04:39:16;;;;;;;12.45;5.82;;;18.00;99.90;;;;;;6124922;23;20017;-85
2022/08/25 04:41:42;;;;;;;8.52;5.32;;;18.10;99.90;;;;;;6176195;23;20021;-85
2022/08/25 04:44:07;;;;;;;8.80;5.57;;;18.10;99.90;;;;;;6149893;23;20017;-85
2022/08/25 04:46:34;;;;;;;7.05;5.05;;;18.10;99.90;;;;;;6149476;23;20017;-85
2022/08/25 04:49:01;;;;;;;13.75;6.25;;;18.10;99.90;;;;;;6150380;23;20070;-85
2022/08/25 04:51:36;;;;;;;9.70;5.65;;;18.40;99.90;;;;;;6125630;23;20024;-85
2022/08/25 04:54:05;;;;;;;12.60;5.50;;;18.00;99.90;;;;;;6149520;23;20017;-85
2022/08/25 04:56:32;;;;;;;9.27;5.47;;;18.00;99.90;;;;;;6149978;23;20315;-86
2022/08/25 04:59:02;;;;;;;12.02;5.40;;;18.00;99.90;;;;;;6125458;23;20044;-85
2022/08/25 05:01:28;;;;;;;7.82;5.22;;;18.00;99.90;;;;;;6125284;23;20021;-86
2022/08/25 05:04:00;;;;;;;8.30;5.50;;;18.00;99.90;;;;;;6149427;23;20052;-85
2022/08/25 05:06:27;;;;;;;10.32;5.50;;;18.00;99.90;;;;;;6125166;23;20063;-85
2022/08/25 05:08:54;;;;;;;8.15;5.68;;;18.10;99.90;;;;;;6124971;23;20016;-85
2022/08/25 05:11:21;;;;;;;10.70;5.50;;;18.00;99.90;;;;;;6176160;23;20071;-85
2022/08/25 05:13:48;;;;;;;8.77;5.47;;;18.20;99.90;;;;;;6149360;23;20017;-85
2022/08/25 05:16:14;;;;;;;7.57;5.07;;;18.00;99.90;;;;;;6150035;23;20016;-85
2022/08/25 05:18:40;;;;;;;11.82;5.90;;;18.20;99.90;;;;;;6149636;23;20158;-85
2022/08/25 05:21:09;;;;;;;9.35;5.47;;;18.00;99.90;;;;;;6149433;23;20024;-85
2022/08/25 05:23:36;;;;;;;13.38;6.50;;;18.00;99.90;;;;;;6124995;23;20021;-85
2022/08/25 05:26:07;;;;;;;10.80;5.82;;;18.00;99.90;;;;;;6150002;23;20021;-85
2022/08/25 05:28:33;;;;;;;8.57;6.00;;;18.00;99.90;;;;;;6167280;23;20016;-85
2022/08/25 05:31:00;;;;;;;11.18;5.78;;;18.00;99.90;;;;;;6174834;23;20039;-85
2022/08/25 05:33:27;;;;;;;9.93;5.03;;;18.00;99.90;;;;;;6174731;22;20016;-85
2022/08/25 05:35:52;;;;;;;10.48;5.72;;;18.40;99.90;;;;;;6175294;22;20422;-85
2022/08/25 05:38:18;;;;;;;10.30;5.60;;;18.10;99.90;;;;;;6174573;22;20382;-85
2022/08/25 05:40:44;;;;;;;9.20;6.43;;;18.20;99.90;;;;;;6149698;23;20345;-85
2022/08/25 05:43:11;;;;;;;10.40;5.78;;;18.10;99.90;;;;;;6174444;22;20017;-85
2022/08/25 05:45:38;;;;;;;8.20;5.43;;;18.20;99.90;;;;;;6174242;23;20024;-85
2022/08/25 05:48:03;;;;;;;10.40;5.57;;;18.20;99.90;;;;;;6176057;23;20464;-85
2022/08/25 05:50:29;;;;;;;9.70;5.65;;;18.20;99.90;;;;;;6175916;23;20017;-85
2022/08/25 05:52:54;;;;;;;8.48;6.20;;;18.20;99.90;;;;;;6174229;23;20048;-85
2022/08/25 05:55:20;;;;;;;11.82;6.63;;;18.30;99.90;;;;;;6176573;23;20016;-85
2022/08/25 05:57:46;;;;;;;13.48;6.53;;;18.30;99.90;;;;;;6174106;23;20028;-85
2022/08/25 06:00:12;;;;;;;8.10;5.93;;;18.30;99.90;;;;;;6174505;23;20591;-85
2022/08/25 06:02:47;;;;;;;9.02;5.70;;;18.40;99.90;;;;;;6174436;22;20013;-85
2022/08/25 06:05:17;;;;;;;;;;;18.40;99.90;;;;;;6174509;22;20081;-85
2022/08/25 06:07:48;;;;;;;8.90;5.65;;;18.40;99.90;;;;;;6176058;23;19912;-85
2022/08/25 06:10:14;;;;;;;8.32;6.13;;;18.40;99.90;;;;;;6174834;23;20017;-85
2022/08/25 06:12:43;;;;;;;13.93;6.75;;;18.40;99.90;;;;;;6173705;22;20021;-85
2022/08/25 06:15:11;;;;;;;12.18;6.15;;;18.50;99.90;;;;;;6175025;23;20408;-85
2022/08/25 06:17:40;;;;;;;9.70;5.60;;;18.50;99.90;;;;;;6174035;22;20013;-85
2022/08/25 06:20:11;;;;;;;13.00;6.68;;;18.60;99.90;;;;;;6175543;23;20072;-85
2022/08/25 06:22:37;;;;;;;12.27;6.20;;;18.60;99.90;;;;;;6149281;22;20044;-85
2022/08/25 06:25:04;;;;;;;12.32;6.10;;;18.60;99.90;;;;;;6149434;22;20013;-85
2022/08/25 06:27:29;;;;;;;11.75;6.30;;;18.60;99.90;;;;;;6174285;23;20092;-85
2022/08/25 06:29:55;;;;;;;11.75;7.18;;;18.70;99.90;;;;;;6175749;23;20059;-85
2022/08/25 06:32:21;;;;;;;9.45;6.80;;;18.70;99.90;;;;;;6173966;23;20092;-85
2022/08/25 06:34:46;;;;;;;9.82;5.82;;;18.70;99.90;;;;;;6148524;23;20066;-85
2022/08/25 06:37:12;;;;;;;9.32;6.35;;;18.80;99.90;;;;;;6174482;23;20033;-85
2022/08/25 06:39:37;;;;;;;9.75;6.40;;;19.10;99.90;;;;;;6174020;23;20515;-85
2022/08/25 06:42:03;;;;;;;9.38;6.10;;;18.90;99.90;;;;;;6174002;23;20345;-85
2022/08/25 06:44:29;;;;;;;10.23;6.38;;;18.90;99.90;;;;;;6174225;23;20017;-85
2022/08/25 06:46:54;;;;;;;10.40;6.00;;;19.00;99.90;;;;;;6149216;23;20017;-85
2022/08/25 06:49:20;;;;;;;11.75;6.43;;;19.00;99.90;;;;;;6174121;23;20334;-85
2022/08/25 06:51:46;;;;;;;12.98;6.45;;;19.10;99.90;;;;;;6149098;22;20021;-85
2022/08/25 06:54:12;;;;;;;10.90;6.45;;;19.10;99.90;;;;;;6149261;23;20044;-85
2022/08/25 06:56:41;;;;;;;8.07;5.88;;;19.20;99.90;;;;;;6175602;23;20075;-86
2022/08/25 06:59:07;;;;;;;12.63;7.15;;;19.30;99.90;;;;;;6174425;22;20337;-85
2022/08/25 07:01:34;;;;;;;11.52;5.68;;;19.30;99.90;;;;;;6174028;23;20024;-85
2022/08/25 07:04:02;;;;;;;9.02;5.90;;;19.40;99.90;;;;;;6173248;22;20061;-85
2022/08/25 07:06:30;;;;;;;9.98;6.13;;;19.40;99.90;;;;;;6173752;22;20017;-85
2022/08/25 07:08:56;;;;;;;11.10;6.22;;;19.50;99.90;;;;;;6173497;22;20020;-85
2022/08/25 07:11:23;;;;;;;9.57;6.22;;;19.70;99.90;;;;;;6149075;22;20100;-85
2022/08/25 07:13:49;;;;;;;9.27;6.07;;;19.60;99.90;;;;;;6173534;22;20352;-85
2022/08/25 07:16:17;;;;;;;11.82;6.72;;;19.70;99.90;;;;;;6174227;23;20042;-85
2022/08/25 07:18:44;;;;;;;10.65;6.32;;;19.80;99.90;;;;;;6172562;22;20074;-85
2022/08/25 07:21:11;;;;;;;12.30;5.55;;;19.90;99.90;;;;;;6149349;22;20032;-85
2022/08/25 07:23:37;;;;;;;10.38;5.72;;;19.90;99.90;;;;;;6173704;22;20021;-86
2022/08/25 07:26:11;;;;;;;9.20;6.20;;;20.00;99.90;;;;;;6175561;23;20074;-85
2022/08/25 07:28:37;;;;;;;12.38;6.18;;;20.00;99.90;;;;;;6148713;23;20017;-85
2022/08/25 07:31:03;;;;;;;10.60;6.18;;;20.10;99.90;;;;;;6175446;23;20028;-85
2022/08/25 07:33:29;;;;;;;11.02;5.90;;;20.20;99.90;;;;;;6148628;22;20068;-85
2022/08/25 07:35:55;;;;;;;8.65;5.40;;;20.20;99.90;;;;;;6175456;23;20021;-85
2022/08/25 07:38:21;;;;;;;12.20;6.25;;;20.30;99.90;;;;;;6173489;22;20472;-85
2022/08/25 07:40:53;;;;;;;9.55;5.45;;;20.30;99.90;;;;;;6173548;23;20020;-85
2022/08/25 07:43:22;;;;;;;10.07;5.03;;;20.40;99.90;;;;;;6149140;23;20032;-85
2022/08/25 07:45:47;;;;;;;9.32;5.13;;;20.50;99.90;;;;;;6175338;23;20013;-85
2022/08/25 07:48:14;;;;;;;12.13;5.45;;;20.60;99.90;;;;;;6174554;23;20318;-85
2022/08/25 07:50:44;;;;;;;12.30;6.22;;;20.80;99.90;;;;;;6175056;23;20021;-85
2022/08/25 07:53:11;;;;;;;11.60;5.32;;;20.70;99.90;;;;;;6175436;22;20052;-85
2022/08/25 07:55:37;;;;;;;9.02;4.68;;;20.90;99.90;;;;;;6173502;23;20473;-85
2022/08/25 07:58:05;;;;;;;8.40;5.30;;;20.90;99.90;;;;;;6173565;23;20052;-85
2022/08/25 08:00:33;;;;;;;8.95;5.25;;;21.00;99.90;;;;;;6175296;22;20349;-86
2022/08/25 08:03:06;;;;;;;11.55;4.93;;;21.10;99.90;;;;;;6174012;23;20088;-85
2022/08/25 08:05:33;;;;;;;11.48;5.43;;;21.10;99.90;;;;;;6173776;22;20025;-85
2022/08/25 08:07:59;;;;;;;12.15;5.90;;;21.20;99.90;;;;;;6173725;22;20024;-86
2022/08/25 08:10:25;;;;;;;9.55;4.97;;;21.30;99.90;;;;;;6173392;23;20457;-85
2022/08/25 08:12:52;;;;;;;11.07;5.55;;;21.50;99.90;;;;;;6172924;22;20017;-85
2022/08/25 08:15:18;;;;;;;8.77;4.40;;;21.50;99.90;;;;;;6172913;22;20082;-86
2022/08/25 08:17:44;;;;;;;10.32;4.60;;;21.50;99.90;;;;;;6176245;22;20025;-85
2022/08/25 08:20:11;;;;;;;13.60;5.57;;;21.70;99.90;;;;;;6174864;23;20021;-85
2022/08/25 08:22:39;;;;;;;7.82;4.97;;;21.70;99.90;;;;;;6174690;22;20024;-85
2022/08/25 08:25:07;;;;;;;10.32;4.57;;;21.90;99.90;;;;;;6176297;23;20479;-86
2022/08/25 08:27:33;;;;;;;10.52;4.78;;;22.00;99.90;;;;;;6174673;22;20037;-85
2022/08/25 08:29:59;;;;;;;13.20;4.78;;;22.20;99.90;;;;;;6175687;23;20036;-85
2022/08/25 08:32:25;;;;;;;7.47;4.60;;;22.40;99.90;;;;;;6174852;22;20021;-85
2022/08/25 08:34:51;;;;;;;9.02;4.72;;;23.10;99.90;;;;;;6174362;23;20017;-86
2022/08/25 08:37:17;;;;;;;9.63;4.95;;;22.80;99.90;;;;;;6176333;22;20028;-86
2022/08/25 08:39:43;;;;;;;9.55;4.68;;;23.00;99.90;;;;;;6149696;23;20017;-86
2022/08/25 08:42:41;;;;;;;8.00;4.47;;;23.10;99.90;;;;;;6176401;23;20032;-85
2022/08/25 08:45:34;;;;;;;13.18;5.35;;;23.30;99.90;;;;;;6176193;22;20062;-86
2022/08/25 08:48:15;;;;;;;12.30;4.50;;;23.50;99.90;;;;;;6176684;22;20025;-86
2022/08/25 08:50:43;;;;;;;10.57;4.25;;;23.60;99.90;;;;;;6173748;22;20070;-86
2022/08/25 08:53:20;;;;;;;9.90;4.57;;;23.80;99.90;;;;;;6176318;23;20017;-86
2022/08/25 08:56:05;;;;;;;7.53;4.22;;;24.00;99.90;;;;;;6176440;22;20077;-85
2022/08/25 08:58:50;;;;;;;8.15;4.38;;;24.20;99.90;;;;;;6150104;23;20028;-86
2022/08/25 09:01:23;;;;;;;9.77;3.60;;;24.30;99.90;;;;;;6176521;22;20009;-86
2022/08/25 09:03:55;;;;;;;10.98;4.38;;;24.50;99.90;;;;;;6149596;22;20059;-86
2022/08/25 09:06:34;;;;;;;7.60;4.10;;;24.80;99.90;;;;;;6149832;22;20013;-86
2022/08/25 09:09:03;;;;;;;7.95;4.00;;;24.80;99.90;;;;;;6174904;22;20330;-86
2022/08/25 09:11:52;;;;;;;11.02;4.13;;;25.00;99.90;;;;;;6176453;22;20024;-86
2022/08/25 09:14:27;;;;;;;5.85;3.28;;;25.10;99.90;;;;;;6176303;23;20021;-86
2022/08/25 09:17:27;;;;;;;11.07;3.90;;;25.30;99.90;;;;;;6174331;23;20070;-86
2022/08/25 09:20:32;;;;;;;11.15;3.95;;;25.60;99.60;;;;;;6173898;22;20364;-86
2022/08/25 09:23:09;;;;;;;8.75;3.63;;;25.80;99.90;;;;;;6174845;22;20021;-86
2022/08/25 09:25:44;;;;;;;8.63;3.35;;;25.90;99.90;;;;;;6174175;23;20024;-86
2022/08/25 09:28:29;;;;;;;7.13;3.38;;;26.00;98.90;;;;;;6174854;22;20514;-86
2022/08/25 09:31:02;;;;;;;8.98;3.40;;;26.10;98.40;;;;;;6176063;23;20057;-86
2022/08/25 09:33:31;;;;;;;6.15;2.90;;;26.30;99.00;;;;;;6149994;23;20096;-86
2022/08/25 09:35:57;;;;;;;8.23;3.40;;;26.40;99.00;;;;;;6149624;23;20438;-86
2022/08/25 09:38:24;;;;;;;7.07;3.22;;;26.60;98.80;;;;;;6149852;23;20017;-86
2022/08/25 09:40:55;;;;;;;7.45;3.50;;;26.70;98.40;;;;;;6175515;23;20016;-86
2022/08/25 09:43:37;;;;;;;7.95;3.33;;;26.90;97.50;;;;;;6149334;23;20099;-86
2022/08/25 09:46:12;;;;;;;8.75;3.15;;;27.00;97.10;;;;;;6125124;23;20484;-86
2022/08/25 09:48:41;;;;;;;9.80;3.15;;;27.10;97.10;;;;;;6124567;23;20017;-86
2022/08/25 09:51:23;;;;;;;9.75;3.53;;;27.30;97.20;;;;;;6125020;23;20021;-86
2022/08/25 09:54:12;;;;;;;10.43;3.10;;;27.40;96.00;;;;;;6149243;23;20013;-86
2022/08/25 09:56:53;;;;;;;7.28;3.13;;;27.50;96.00;;;;;;6134150;23;20017;-86
2022/08/25 09:59:27;;;;;;;5.50;2.83;;;27.60;94.50;;;;;;6149560;23;20115;-86
2022/08/25 10:01:55;;;;;;;6.72;2.33;;;27.70;94.90;;;;;;6124735;23;20028;-86
2022/08/25 10:04:30;;;;;;;6.80;2.78;;;27.80;95.00;;;;;;6149621;23;20032;-86
2022/08/25 10:06:57;;;;;;;4.03;2.58;;;27.90;94.30;;;;;;6175816;23;20391;-86
2022/08/25 10:10:12;;;;;;;7.38;2.40;;;28.00;94.50;;;;;;6149813;23;20020;-86
2022/08/25 10:12:43;;;;;;;7.43;2.65;;;28.10;92.10;;;;;;6116242;23;20017;-86
2022/08/25 10:15:15;;;;;;;6.22;2.35;;;28.20;92.50;;;;;;6176650;23;20025;-86
2022/08/25 10:17:40;;;;;;;9.43;2.90;;;28.30;92.70;;;;;;6149438;23;20017;-86
2022/08/25 10:20:09;;;;;;;8.70;2.55;;;28.30;92.90;;;;;;6149981;23;20024;-85
2022/08/25 10:22:36;;;;;;;5.78;3.00;;;28.50;92.60;;;;;;6148805;23;20482;-86
2022/08/25 10:25:08;;;;;;;6.13;3.30;;;28.50;92.60;;;;;;6149535;23;20464;-86
2022/08/25 10:27:57;;;;;;;6.07;3.20;;;28.60;92.60;;;;;;6129280;23;20025;-86
2022/08/25 10:30:34;;;;;;;6.93;2.67;;;28.80;91.70;;;;;;6174528;23;20109;-87
2022/08/25 10:33:29;;;;;;;6.53;2.35;;;28.90;92.20;;;;;;6174413;23;20126;-86
2022/08/25 10:36:10;;;;;;;9.40;2.78;;;29.00;90.20;;;;;;6175716;22;20024;-86
2022/08/25 10:38:41;;;;;;;5.22;2.35;;;29.10;90.20;;;;;;6175957;22;20305;-86
2022/08/25 10:41:26;;;;;;;6.45;3.05;;;29.30;90.50;;;;;;6173968;22;20023;-86
2022/08/25 10:45:41;;;;;;;7.47;2.63;;;29.40;90.10;;;;;;6175993;22;20092;-86
2022/08/25 10:47:10;;;;;;;6.70;2.40;;;29.50;88.70;;;;;;6175350;23;20072;-86
2022/08/25 10:49:44;;;;;;;5.13;2.50;;;29.60;88.10;;;;;;6174371;22;20017;-86
2022/08/25 10:52:31;;;;;;;7.30;2.15;;;29.70;88.90;;;;;;6174466;23;20092;-86
2022/08/25 10:55:05;;;;;;;7.72;2.63;;;29.80;87.90;;;;;;6175209;22;20017;-86
2022/08/25 10:57:51;;;;;;;3.47;2.30;;;29.90;88.80;;;;;;6174276;22;20017;-87
2022/08/25 11:00:25;;;;;;;8.18;2.88;;;30.00;84.60;;;;;;6149349;22;20017;-86
2022/08/25 11:03:30;;;;;;;10.07;2.30;;;30.10;87.20;;;;;;6174217;22;20020;-87
2022/08/25 11:06:01;;;;;;;4.47;2.08;;;30.20;85.70;;;;;;6175338;23;20052;-86
2022/08/25 11:08:34;;;;;;;3.95;2.00;;;30.30;85.20;;;;;;6174577;23;20021;-86
2022/08/25 11:11:25;;;;;;;6.63;2.58;;;30.30;85.50;;;;;;6173565;23;20021;-86
2022/08/25 11:14:14;;;;;;;5.97;2.08;;;30.50;88.30;;;;;;6173685;22;20017;-87
2022/08/25 11:16:51;;;;;;;5.00;2.67;;;30.60;85.00;;;;;;6174769;23;20094;-86
2022/08/25 11:19:16;;;;;;;5.28;2.55;;;30.70;83.60;;;;;;6173802;23;20021;-87
2022/08/25 11:21:56;;;;;;;6.63;2.05;;;30.80;84.10;;;;;;6173565;23;20491;-87
2022/08/25 11:24:37;;;;;;;5.13;2.33;;;30.90;85.60;;;;;;6174998;22;20100;-87
2022/08/25 11:27:05;;;;;;;5.00;2.65;;;31.00;84.90;;;;;;6175438;22;20052;-86
2022/08/25 11:29:35;;;;;;;4.65;2.40;;;31.10;83.50;;;;;;6149566;23;20311;-87
2022/08/25 11:32:02;;;;;;;5.07;2.47;;;31.10;84.10;;;;;;6124249;23;20021;-87
2022/08/25 11:34:34;;;;;;;7.13;2.25;;;31.20;83.70;;;;;;6124751;23;20096;-86
2022/08/25 11:37:08;;;;;;;9.27;2.78;;;31.20;84.10;;;;;;6124282;23;20163;-87
2022/08/25 11:39:58;;;;;;;7.33;2.67;;;31.30;84.60;;;;;;6148033;23;20020;-87
2022/08/25 11:42:59;;;;;;;6.07;2.40;;;31.40;81.40;;;;;;6175747;23;20245;-87
2022/08/25 11:45:45;;;;;;;3.58;2.28;;;31.50;81.50;;;;;;6175224;23;20449;-87
2022/08/25 11:48:17;;;;;;;12.50;3.55;;;31.60;81.00;;;;;;6175584;23;20100;-87
2022/08/25 11:51:00;;;;;;;13.85;2.33;;;31.60;80.60;;;;;;6175093;23;20060;-87
2022/08/25 11:53:28;;;;;;;4.80;2.60;;;31.70;79.60;;;;;;6176055;23;20028;-87
2022/08/25 11:56:01;;;;;;;5.57;2.65;;;31.70;80.80;;;;;;6176864;23;20013;-87
2022/08/25 11:58:40;;;;;;;5.67;2.20;;;31.70;78.20;;;;;;6150412;23;20093;-87
2022/08/25 12:01:31;;;;;;;4.75;2.50;;;31.80;77.80;;;;;;6150263;23;20017;-87
2022/08/25 12:04:12;;;;;;;4.15;2.53;;;31.80;78.10;;;;;;6176038;23;20389;-87
2022/08/25 12:07:03;;;;;;;4.95;2.25;;;31.90;77.30;;;;;;6149745;23;20070;-87
2022/08/25 12:09:28;;;;;;;5.20;1.90;;;32.00;77.90;;;;;;6149917;23;20094;-87
2022/08/25 12:11:57;;;;;;;7.63;2.17;;;32.10;77.50;;;;;;6149706;23;20025;-87
2022/08/25 12:14:25;;;;;;;5.00;2.17;;;32.10;76.50;;;;;;6150126;23;20368;-87
2022/08/25 12:16:53;;;;;;;4.72;2.53;;;32.20;76.10;;;;;;6176110;23;20035;-87
2022/08/25 12:19:48;;;;;;;5.72;2.50;;;32.20;76.80;;;;;;6149595;23;20021;-86
2022/08/25 12:22:20;;;;;;;7.03;2.55;;;32.30;76.20;;;;;;6124773;23;20125;-86
2022/08/25 12:25:03;;;;;;;6.13;2.33;;;32.30;76.90;;;;;;6125415;23;20014;-87
2022/08/25 12:27:56;;;;;;;6.05;2.47;;;32.30;75.60;;;;;;6154593;23;20121;-87
2022/08/25 12:30:30;;;;;;;5.00;2.00;;;32.40;73.70;;;;;;6175216;22;20028;-87
2022/08/25 12:33:24;;;;;;;6.60;2.28;;;32.50;75.20;;;;;;6174583;23;20263;-87
2022/08/25 12:36:02;;;;;;;5.25;2.38;;;32.50;72.60;;;;;;6176461;22;20074;-87
2022/08/25 12:39:06;;;;;;;5.60;2.40;;;32.50;72.80;;;;;;6176755;22;20044;-87
2022/08/25 12:41:32;;;;;;;6.72;2.40;;;32.60;73.60;;;;;;6176879;22;20066;-87
2022/08/25 12:44:37;;;;;;;5.15;2.28;;;32.60;74.60;;;;;;6176878;22;20329;-87
2022/08/25 12:47:09;;;;;;;;;;;32.70;74.10;;;;;;6175424;22;20021;-87
2022/08/25 12:49:35;;;;;;;6.80;2.25;;;32.80;72.90;;;;;;6174685;23;19916;-87
2022/08/25 12:52:04;;;;;;;8.73;2.20;;;32.80;74.40;;;;;;6176069;23;20023;-87
2022/08/25 12:54:52;;;;;;;6.18;2.00;;;32.90;72.20;;;;;;6149630;23;20095;-87
2022/08/25 12:57:37;;;;;;;4.65;2.40;;;33.00;72.70;;;;;;6175945;22;20397;-87
2022/08/25 13:00:16;;;;;;;6.18;2.30;;;33.10;73.70;;;;;;6176508;23;20021;-87
2022/08/25 13:03:19;;;;;;;6.20;2.20;;;33.20;72.40;;;;;;6173856;22;20017;-87
2022/08/25 13:06:16;;;;;;;5.38;2.30;;;33.20;71.50;;;;;;6173835;23;20338;-87